sensor_id;sensor_type;location;lat;lon;timestamp;P1;P2;P0
62778;PMS7003;48821;48.796;2.396;2023-01-10T00:00:22;4.17;4.17;2.83
62778;PMS7003;48821;48.796;2.396;2023-01-10T00:01:37;6.00;4.83;3.00
62778;PMS7003;48821;48.796;2.396;2023-01-10T00:02:48;12.67;6.00;4.67
62778;PMS7003;48821;48.796;2.396;2023-01-10T00:04:00;5.40;3.40;2.80
62778;PMS7003;48821;48.796;2.396;2023-01-10T00:05:14;5.83;3.00;1.50
62778;PMS7003;48821;48.796;2.396;2023-01-10T00:06:27;5.83;2.83;2.00
62778;PMS7003;48821;48.796;2.396;2023-01-10T00:07:41;8.17;3.17;2.17
62778;PMS7003;48821;48.796;2.396;2023-01-10T00:08:54;8.50;2.83;2.17
62778;PMS7003;48821;48.796;2.396;2023-01-10T00:10:06;10.00;5.00;3.00
62778;PMS7003;48821;48.796;2.396;2023-01-10T00:11:20;1.00;0.00;0.00
62778;PMS7003;48821;48.796;2.396;2023-01-10T00:12:52;3.67;2.17;2.00
62778;PMS7003;48821;48.796;2.396;2023-01-10T00:14:25;7.17;4.00;2.00
62778;PMS7003;48821;48.796;2.396;2023-01-10T00:15:40;3.33;2.00;1.00
62778;PMS7003;48821;48.796;2.396;2023-01-10T00:16:53;4.00;3.00;2.33
62778;PMS7003;48821;48.796;2.396;2023-01-10T00:18:07;4.67;3.00;2.00
62778;PMS7003;48821;48.796;2.396;2023-01-10T00:19:18;11.00;4.67;2.67
62778;PMS7003;48821;48.796;2.396;2023-01-10T00:20:29;5.00;2.67;2.00
62778;PMS7003;48821;48.796;2.396;2023-01-10T00:21:42;8.50;6.00;3.00
62778;PMS7003;48821;48.796;2.396;2023-01-10T00:22:56;9.17;4.50;3.00
62778;PMS7003;48821;48.796;2.396;2023-01-10T00:24:09;3.00;2.50;1.33
62778;PMS7003;48821;48.796;2.396;2023-01-10T00:25:42;6.00;3.50;2.67
62778;PMS7003;48821;48.796;2.396;2023-01-10T00:26:55;6.00;4.00;3.00
62778;PMS7003;48821;48.796;2.396;2023-01-10T00:28:08;4.00;3.83;2.33
62778;PMS7003;48821;48.796;2.396;2023-01-10T00:29:35;6.67;5.17;4.00
62778;PMS7003;48821;48.796;2.396;2023-01-10T00:30:49;7.67;7.50;5.00
62778;PMS7003;48821;48.796;2.396;2023-01-10T00:32:06;11.50;7.33;5.50
62778;PMS7003;48821;48.796;2.396;2023-01-10T00:33:20;8.83;6.83;4.50
62778;PMS7003;48821;48.796;2.396;2023-01-10T00:34:33;5.00;3.50;2.33
62778;PMS7003;48821;48.796;2.396;2023-01-10T00:35:47;6.33;4.33;3.00
62778;PMS7003;48821;48.796;2.396;2023-01-10T00:36:57;12.67;6.00;5.00
62778;PMS7003;48821;48.796;2.396;2023-01-10T00:38:08;5.33;4.67;3.00
62778;PMS7003;48821;48.796;2.396;2023-01-10T00:39:22;6.67;4.83;3.33
62778;PMS7003;48821;48.796;2.396;2023-01-10T00:40:36;8.33;2.33;1.00
62778;PMS7003;48821;48.796;2.396;2023-01-10T00:41:47;6.00;5.67;4.00
62778;PMS7003;48821;48.796;2.396;2023-01-10T00:43:16;6.67;3.00;2.00
62778;PMS7003;48821;48.796;2.396;2023-01-10T00:44:45;7.33;5.00;4.00
62778;PMS7003;48821;48.796;2.396;2023-01-10T00:45:58;4.80;4.60;3.00
62778;PMS7003;48821;48.796;2.396;2023-01-10T00:47:11;4.33;3.00;2.00
62778;PMS7003;48821;48.796;2.396;2023-01-10T00:48:25;4.50;3.00;2.00
62778;PMS7003;48821;48.796;2.396;2023-01-10T00:49:38;8.50;4.33;3.33
62778;PMS7003;48821;48.796;2.396;2023-01-10T00:50:52;9.00;6.00;4.00
62778;PMS7003;48821;48.796;2.396;2023-01-10T00:52:02;8.67;4.67;3.00
62778;PMS7003;48821;48.796;2.396;2023-01-10T00:53:14;8.50;5.50;4.00
62778;PMS7003;48821;48.796;2.396;2023-01-10T00:54:25;6.33;5.00;3.00
62778;PMS7003;48821;48.796;2.396;2023-01-10T00:55:36;4.33;2.67;1.67
62778;PMS7003;48821;48.796;2.396;2023-01-10T00:56:49;4.00;3.00;1.67
62778;PMS7003;48821;48.796;2.396;2023-01-10T00:58:03;3.83;2.00;1.00
62778;PMS7003;48821;48.796;2.396;2023-01-10T00:59:16;5.50;2.83;1.83
62778;PMS7003;48821;48.796;2.396;2023-01-10T01:00:29;1.17;1.00;0.33
62778;PMS7003;48821;48.796;2.396;2023-01-10T01:01:43;4.00;1.67;1.00
62778;PMS7003;48821;48.796;2.396;2023-01-10T01:02:56;6.33;2.33;1.00
62778;PMS7003;48821;48.796;2.396;2023-01-10T01:04:09;5.17;3.00;2.00
62778;PMS7003;48821;48.796;2.396;2023-01-10T01:05:22;7.50;3.00;2.00
62778;PMS7003;48821;48.796;2.396;2023-01-10T01:06:36;4.00;3.00;1.00
62778;PMS7003;48821;48.796;2.396;2023-01-10T01:07:49;4.17;2.83;1.33
62778;PMS7003;48821;48.796;2.396;2023-01-10T01:09:03;4.83;3.00;2.00
62778;PMS7003;48821;48.796;2.396;2023-01-10T01:10:17;2.83;1.83;1.67
62778;PMS7003;48821;48.796;2.396;2023-01-10T01:11:40;4.50;2.00;0.83
62778;PMS7003;48821;48.796;2.396;2023-01-10T01:12:50;11.00;3.00;2.00
62778;PMS7003;48821;48.796;2.396;2023-01-10T01:14:02;3.33;2.00;1.00
62778;PMS7003;48821;48.796;2.396;2023-01-10T01:15:16;7.00;2.83;1.00
62778;PMS7003;48821;48.796;2.396;2023-01-10T01:16:29;3.33;2.00;1.00
62778;PMS7003;48821;48.796;2.396;2023-01-10T01:17:42;4.50;2.50;1.00
62778;PMS7003;48821;48.796;2.396;2023-01-10T01:18:55;4.83;4.00;2.00
62778;PMS7003;48821;48.796;2.396;2023-01-10T01:20:09;2.33;1.67;1.00
62778;PMS7003;48821;48.796;2.396;2023-01-10T01:21:23;4.33;3.83;2.33
62778;PMS7003;48821;48.796;2.396;2023-01-10T01:22:40;2.67;2.00;1.00
62778;PMS7003;48821;48.796;2.396;2023-01-10T01:23:54;3.33;1.50;1.00
62778;PMS7003;48821;48.796;2.396;2023-01-10T01:25:10;2.33;2.33;1.83
62778;PMS7003;48821;48.796;2.396;2023-01-10T01:26:24;3.00;2.67;1.83
62778;PMS7003;48821;48.796;2.396;2023-01-10T01:27:37;4.33;2.67;1.83
62778;PMS7003;48821;48.796;2.396;2023-01-10T01:28:50;3.00;1.83;1.00
62778;PMS7003;48821;48.796;2.396;2023-01-10T01:30:04;4.83;1.00;0.00
62778;PMS7003;48821;48.796;2.396;2023-01-10T01:31:18;2.83;2.00;1.17
62778;PMS7003;48821;48.796;2.396;2023-01-10T01:32:32;4.00;1.00;1.00
62778;PMS7003;48821;48.796;2.396;2023-01-10T01:33:46;4.17;3.17;2.00
62778;PMS7003;48821;48.796;2.396;2023-01-10T01:34:59;7.50;2.33;1.50
62778;PMS7003;48821;48.796;2.396;2023-01-10T01:36:12;4.50;2.50;1.00
62778;PMS7003;48821;48.796;2.396;2023-01-10T01:37:26;5.67;2.83;1.50
62778;PMS7003;48821;48.796;2.396;2023-01-10T01:38:39;0.83;0.33;0.00
62778;PMS7003;48821;48.796;2.396;2023-01-10T01:39:53;2.83;1.83;1.00
62778;PMS7003;48821;48.796;2.396;2023-01-10T01:41:04;6.00;2.00;1.00
62778;PMS7003;48821;48.796;2.396;2023-01-10T01:42:37;1.33;1.33;1.00
62778;PMS7003;48821;48.796;2.396;2023-01-10T01:43:58;2.83;1.00;0.67
62778;PMS7003;48821;48.796;2.396;2023-01-10T01:46:35;5.17;2.00;1.00
62778;PMS7003;48821;48.796;2.396;2023-01-10T01:49:15;5.00;2.00;2.00
62778;PMS7003;48821;48.796;2.396;2023-01-10T01:51:55;5.67;2.00;1.33
62778;PMS7003;48821;48.796;2.396;2023-01-10T01:53:16;3.17;2.50;1.83
62778;PMS7003;48821;48.796;2.396;2023-01-10T01:54:31;9.67;3.00;1.00
62778;PMS7003;48821;48.796;2.396;2023-01-10T01:55:47;3.50;3.00;1.50
62778;PMS7003;48821;48.796;2.396;2023-01-10T01:57:12;3.00;1.00;0.83
62778;PMS7003;48821;48.796;2.396;2023-01-10T01:58:40;3.67;2.00;1.00
62778;PMS7003;48821;48.796;2.396;2023-01-10T02:00:00;3.00;1.67;1.00
62778;PMS7003;48821;48.796;2.396;2023-01-10T02:01:16;3.83;3.00;2.17
62778;PMS7003;48821;48.796;2.396;2023-01-10T02:02:31;3.67;1.00;1.00
62778;PMS7003;48821;48.796;2.396;2023-01-10T02:03:53;2.83;1.83;1.17
62778;PMS7003;48821;48.796;2.396;2023-01-10T02:05:20;4.83;2.67;1.17
62778;PMS7003;48821;48.796;2.396;2023-01-10T02:06:35;3.83;3.00;2.00
62778;PMS7003;48821;48.796;2.396;2023-01-10T02:07:56;4.33;2.00;1.00
62778;PMS7003;48821;48.796;2.396;2023-01-10T02:09:19;6.83;2.67;2.00
62778;PMS7003;48821;48.796;2.396;2023-01-10T02:12:08;3.17;2.33;1.33
62778;PMS7003;48821;48.796;2.396;2023-01-10T02:13:24;4.67;2.00;2.00
62778;PMS7003;48821;48.796;2.396;2023-01-10T02:14:38;2.67;1.67;1.17
62778;PMS7003;48821;48.796;2.396;2023-01-10T02:15:54;5.83;2.00;1.00
62778;PMS7003;48821;48.796;2.396;2023-01-10T02:17:10;3.83;3.83;2.00
62778;PMS7003;48821;48.796;2.396;2023-01-10T02:18:23;8.00;1.83;1.17
62778;PMS7003;48821;48.796;2.396;2023-01-10T02:19:43;2.50;2.50;1.50
62778;PMS7003;48821;48.796;2.396;2023-01-10T02:25:53;2.33;2.33;1.33
62778;PMS7003;48821;48.796;2.396;2023-01-10T02:27:26;7.00;4.00;2.00
62778;PMS7003;48821;48.796;2.396;2023-01-10T02:33:25;3.67;3.00;2.17
62778;PMS7003;48821;48.796;2.396;2023-01-10T02:34:57;6.17;3.50;2.50
62778;PMS7003;48821;48.796;2.396;2023-01-10T02:36:25;2.50;2.33;1.33
62778;PMS7003;48821;48.796;2.396;2023-01-10T02:39:17;7.00;3.00;1.33
62778;PMS7003;48821;48.796;2.396;2023-01-10T02:40:48;3.00;3.00;2.00
62778;PMS7003;48821;48.796;2.396;2023-01-10T02:42:14;3.83;2.00;1.00
62778;PMS7003;48821;48.796;2.396;2023-01-10T02:43:45;2.83;2.83;1.50
62778;PMS7003;48821;48.796;2.396;2023-01-10T02:45:37;3.17;2.33;1.50
62778;PMS7003;48821;48.796;2.396;2023-01-10T02:46:45;1.00;1.00;0.33
62778;PMS7003;48821;48.796;2.396;2023-01-10T02:48:01;1.33;1.33;1.00
62778;PMS7003;48821;48.796;2.396;2023-01-10T02:49:14;4.83;1.50;1.00
62778;PMS7003;48821;48.796;2.396;2023-01-10T02:51:56;4.67;2.17;2.00
62778;PMS7003;48821;48.796;2.396;2023-01-10T02:53:14;3.33;3.33;2.00
62778;PMS7003;48821;48.796;2.396;2023-01-10T02:54:32;4.33;4.17;1.83
62778;PMS7003;48821;48.796;2.396;2023-01-10T03:00:07;6.00;3.67;2.33
62778;PMS7003;48821;48.796;2.396;2023-01-10T03:01:29;3.83;2.00;1.00
62778;PMS7003;48821;48.796;2.396;2023-01-10T03:04:40;4.00;2.33;1.67
62778;PMS7003;48821;48.796;2.396;2023-01-10T03:09:32;5.33;3.00;2.00
62778;PMS7003;48821;48.796;2.396;2023-01-10T03:10:46;5.00;2.33;1.67
62778;PMS7003;48821;48.796;2.396;2023-01-10T03:12:20;5.67;3.67;2.00
62778;PMS7003;48821;48.796;2.396;2023-01-10T03:13:38;1.67;1.67;1.33
62778;PMS7003;48821;48.796;2.396;2023-01-10T03:15:01;3.50;2.00;1.00
62778;PMS7003;48821;48.796;2.396;2023-01-10T03:16:17;5.33;3.00;2.17
62778;PMS7003;48821;48.796;2.396;2023-01-10T03:17:35;4.50;3.50;1.83
62778;PMS7003;48821;48.796;2.396;2023-01-10T03:19:26;5.00;2.33;2.00
62778;PMS7003;48821;48.796;2.396;2023-01-10T03:20:33;1.67;1.17;0.83
62778;PMS7003;48821;48.796;2.396;2023-01-10T03:21:52;2.33;2.17;1.17
62778;PMS7003;48821;48.796;2.396;2023-01-10T03:23:08;2.50;0.67;0.00
62778;PMS7003;48821;48.796;2.396;2023-01-10T03:24:58;3.17;1.33;1.00
62778;PMS7003;48821;48.796;2.396;2023-01-10T03:26:06;3.33;2.50;2.00
62778;PMS7003;48821;48.796;2.396;2023-01-10T03:29:05;7.00;3.00;1.00
62778;PMS7003;48821;48.796;2.396;2023-01-10T03:30:25;2.00;2.00;1.50
62778;PMS7003;48821;48.796;2.396;2023-01-10T03:31:47;2.83;2.00;0.00
62778;PMS7003;48821;48.796;2.396;2023-01-10T03:33:04;4.17;3.00;2.00
62778;PMS7003;48821;48.796;2.396;2023-01-10T03:34:18;4.33;1.50;1.00
62778;PMS7003;48821;48.796;2.396;2023-01-10T03:35:36;3.17;1.67;1.00
62778;PMS7003;48821;48.796;2.396;2023-01-10T03:37:12;1.83;1.33;1.00
62778;PMS7003;48821;48.796;2.396;2023-01-10T03:38:45;2.00;1.00;1.00
62778;PMS7003;48821;48.796;2.396;2023-01-10T03:40:13;3.00;2.50;1.67
62778;PMS7003;48821;48.796;2.396;2023-01-10T03:44:24;4.67;2.00;2.00
62778;PMS7003;48821;48.796;2.396;2023-01-10T03:45:58;4.00;2.50;1.00
62778;PMS7003;48821;48.796;2.396;2023-01-10T03:48:47;3.17;2.00;1.00
62778;PMS7003;48821;48.796;2.396;2023-01-10T03:50:03;7.50;2.17;2.00
62778;PMS7003;48821;48.796;2.396;2023-01-10T03:51:23;6.83;2.50;1.67
62778;PMS7003;48821;48.796;2.396;2023-01-10T03:52:39;2.00;2.00;1.67
62778;PMS7003;48821;48.796;2.396;2023-01-10T03:53:54;4.50;3.83;2.50
62778;PMS7003;48821;48.796;2.396;2023-01-10T03:55:12;5.50;2.50;2.00
62778;PMS7003;48821;48.796;2.396;2023-01-10T03:56:27;5.33;2.67;1.50
62778;PMS7003;48821;48.796;2.396;2023-01-10T03:57:40;5.67;3.00;2.00
62778;PMS7003;48821;48.796;2.396;2023-01-10T03:58:54;3.17;2.67;1.83
62778;PMS7003;48821;48.796;2.396;2023-01-10T04:00:08;2.83;2.00;2.00
62778;PMS7003;48821;48.796;2.396;2023-01-10T04:01:22;2.00;2.00;1.67
62778;PMS7003;48821;48.796;2.396;2023-01-10T04:02:35;3.67;2.50;1.00
62778;PMS7003;48821;48.796;2.396;2023-01-10T04:03:48;3.33;3.00;2.00
62778;PMS7003;48821;48.796;2.396;2023-01-10T04:05:01;3.00;2.00;1.00
62778;PMS7003;48821;48.796;2.396;2023-01-10T04:06:15;4.83;2.67;2.00
62778;PMS7003;48821;48.796;2.396;2023-01-10T04:07:29;7.33;2.67;1.67
62778;PMS7003;48821;48.796;2.396;2023-01-10T04:08:43;5.33;3.00;2.00
62778;PMS7003;48821;48.796;2.396;2023-01-10T04:09:56;3.33;2.00;1.17
62778;PMS7003;48821;48.796;2.396;2023-01-10T04:11:09;3.50;2.00;1.00
62778;PMS7003;48821;48.796;2.396;2023-01-10T04:12:23;4.00;2.33;1.33
62778;PMS7003;48821;48.796;2.396;2023-01-10T04:13:36;4.50;2.00;1.00
62778;PMS7003;48821;48.796;2.396;2023-01-10T04:14:49;5.33;4.00;2.67
62778;PMS7003;48821;48.796;2.396;2023-01-10T04:16:03;2.33;2.33;1.17
62778;PMS7003;48821;48.796;2.396;2023-01-10T04:17:16;3.33;2.00;2.00
62778;PMS7003;48821;48.796;2.396;2023-01-10T04:18:29;3.33;3.17;2.00
62778;PMS7003;48821;48.796;2.396;2023-01-10T04:19:43;3.33;3.00;2.00
62778;PMS7003;48821;48.796;2.396;2023-01-10T04:20:56;7.00;4.17;3.00
62778;PMS7003;48821;48.796;2.396;2023-01-10T04:22:10;6.50;3.00;2.17
62778;PMS7003;48821;48.796;2.396;2023-01-10T04:23:23;1.83;1.50;1.00
62778;PMS7003;48821;48.796;2.396;2023-01-10T04:24:37;4.33;3.00;2.00
62778;PMS7003;48821;48.796;2.396;2023-01-10T04:25:50;6.00;3.33;2.17
62778;PMS7003;48821;48.796;2.396;2023-01-10T04:27:04;5.00;4.00;2.83
62778;PMS7003;48821;48.796;2.396;2023-01-10T04:28:17;5.67;3.17;2.17
62778;PMS7003;48821;48.796;2.396;2023-01-10T04:29:30;4.67;3.00;2.50
62778;PMS7003;48821;48.796;2.396;2023-01-10T04:30:43;3.67;3.00;2.00
62778;PMS7003;48821;48.796;2.396;2023-01-10T04:31:57;5.50;3.00;2.17
62778;PMS7003;48821;48.796;2.396;2023-01-10T04:33:10;5.33;3.33;2.00
62778;PMS7003;48821;48.796;2.396;2023-01-10T04:34:24;3.33;3.00;2.00
62778;PMS7003;48821;48.796;2.396;2023-01-10T04:35:37;5.00;2.00;1.00
62778;PMS7003;48821;48.796;2.396;2023-01-10T04:36:50;3.83;2.83;2.00
62778;PMS7003;48821;48.796;2.396;2023-01-10T04:38:04;5.67;3.33;3.00
62778;PMS7003;48821;48.796;2.396;2023-01-10T04:39:17;5.67;3.67;2.83
62778;PMS7003;48821;48.796;2.396;2023-01-10T04:40:30;4.00;3.00;1.50
62778;PMS7003;48821;48.796;2.396;2023-01-10T04:41:43;3.67;1.00;0.83
62778;PMS7003;48821;48.796;2.396;2023-01-10T04:42:57;4.50;3.67;2.00
62778;PMS7003;48821;48.796;2.396;2023-01-10T04:44:10;4.33;4.33;2.67
62778;PMS7003;48821;48.796;2.396;2023-01-10T04:45:23;3.00;2.50;2.50
62778;PMS7003;48821;48.796;2.396;2023-01-10T04:46:36;4.67;4.50;2.67
62778;PMS7003;48821;48.796;2.396;2023-01-10T04:47:50;2.50;2.17;2.00
62778;PMS7003;48821;48.796;2.396;2023-01-10T04:49:03;3.50;3.33;3.00
62778;PMS7003;48821;48.796;2.396;2023-01-10T04:50:17;4.00;4.00;2.17
62778;PMS7003;48821;48.796;2.396;2023-01-10T04:51:31;4.17;2.50;1.67
62778;PMS7003;48821;48.796;2.396;2023-01-10T04:52:44;4.00;3.00;2.00
62778;PMS7003;48821;48.796;2.396;2023-01-10T04:53:57;9.00;4.00;2.67
62778;PMS7003;48821;48.796;2.396;2023-01-10T04:55:10;5.67;3.33;2.00
62778;PMS7003;48821;48.796;2.396;2023-01-10T04:56:24;3.00;2.00;1.67
62778;PMS7003;48821;48.796;2.396;2023-01-10T04:57:37;3.83;3.00;2.50
62778;PMS7003;48821;48.796;2.396;2023-01-10T04:58:50;4.33;3.17;2.17
62778;PMS7003;48821;48.796;2.396;2023-01-10T05:00:03;4.33;3.33;2.50
62778;PMS7003;48821;48.796;2.396;2023-01-10T05:01:19;5.50;3.67;2.00
62778;PMS7003;48821;48.796;2.396;2023-01-10T05:02:34;4.33;2.33;1.67
62778;PMS7003;48821;48.796;2.396;2023-01-10T05:03:54;4.83;4.00;2.50
62778;PMS7003;48821;48.796;2.396;2023-01-10T05:05:09;4.00;2.83;1.83
62778;PMS7003;48821;48.796;2.396;2023-01-10T05:06:23;7.00;3.83;3.00
62778;PMS7003;48821;48.796;2.396;2023-01-10T05:07:37;5.67;3.67;1.67
62778;PMS7003;48821;48.796;2.396;2023-01-10T05:08:50;3.33;3.17;2.00
62778;PMS7003;48821;48.796;2.396;2023-01-10T05:10:04;7.50;2.83;1.83
62778;PMS7003;48821;48.796;2.396;2023-01-10T05:11:18;6.50;3.00;2.00
62778;PMS7003;48821;48.796;2.396;2023-01-10T05:12:31;5.50;3.17;2.00
62778;PMS7003;48821;48.796;2.396;2023-01-10T05:13:45;5.17;4.00;3.00
62778;PMS7003;48821;48.796;2.396;2023-01-10T05:14:58;5.50;3.50;2.83
62778;PMS7003;48821;48.796;2.396;2023-01-10T05:16:12;6.33;3.83;3.33
62778;PMS7003;48821;48.796;2.396;2023-01-10T05:17:25;2.67;2.67;2.00
62778;PMS7003;48821;48.796;2.396;2023-01-10T05:18:38;4.83;3.17;2.33
62778;PMS7003;48821;48.796;2.396;2023-01-10T05:19:51;5.00;3.17;2.17
62778;PMS7003;48821;48.796;2.396;2023-01-10T05:21:06;5.17;4.50;3.00
62778;PMS7003;48821;48.796;2.396;2023-01-10T05:22:21;0.00;0.00;0.00
62778;PMS7003;48821;48.796;2.396;2023-01-10T05:23:34;7.33;2.17;1.83
62778;PMS7003;48821;48.796;2.396;2023-01-10T05:24:48;1.33;0.83;0.33
62778;PMS7003;48821;48.796;2.396;2023-01-10T05:26:05;4.67;2.33;1.33
62778;PMS7003;48821;48.796;2.396;2023-01-10T05:27:19;4.17;2.50;2.00
62778;PMS7003;48821;48.796;2.396;2023-01-10T05:28:32;3.33;2.83;2.00
62778;PMS7003;48821;48.796;2.396;2023-01-10T05:29:45;4.00;4.00;2.00
62778;PMS7003;48821;48.796;2.396;2023-01-10T05:30:59;4.00;3.17;2.67
62778;PMS7003;48821;48.796;2.396;2023-01-10T05:32:12;5.50;3.00;2.67
62778;PMS7003;48821;48.796;2.396;2023-01-10T05:33:25;5.50;2.67;2.00
62778;PMS7003;48821;48.796;2.396;2023-01-10T05:34:38;4.00;3.00;2.00
62778;PMS7003;48821;48.796;2.396;2023-01-10T05:35:49;9.00;2.33;2.00
62778;PMS7003;48821;48.796;2.396;2023-01-10T05:37:00;6.00;4.00;2.00
62778;PMS7003;48821;48.796;2.396;2023-01-10T05:38:13;5.17;3.00;2.00
62778;PMS7003;48821;48.796;2.396;2023-01-10T05:39:26;4.00;2.33;2.00
62778;PMS7003;48821;48.796;2.396;2023-01-10T05:40:40;7.83;4.33;2.17
62778;PMS7003;48821;48.796;2.396;2023-01-10T05:41:53;7.00;3.00;2.00
62778;PMS7003;48821;48.796;2.396;2023-01-10T05:43:06;4.67;4.50;3.83
62778;PMS7003;48821;48.796;2.396;2023-01-10T05:44:19;3.50;3.33;3.00
62778;PMS7003;48821;48.796;2.396;2023-01-10T05:45:33;7.50;3.00;2.67
62778;PMS7003;48821;48.796;2.396;2023-01-10T05:46:46;5.33;3.00;2.00
62778;PMS7003;48821;48.796;2.396;2023-01-10T05:47:59;7.50;5.00;3.83
62778;PMS7003;48821;48.796;2.396;2023-01-10T05:49:12;5.17;4.67;4.00
62778;PMS7003;48821;48.796;2.396;2023-01-10T05:50:26;9.17;3.50;3.00
62778;PMS7003;48821;48.796;2.396;2023-01-10T05:51:39;5.67;4.67;3.33
62778;PMS7003;48821;48.796;2.396;2023-01-10T05:52:54;3.50;3.50;2.83
62778;PMS7003;48821;48.796;2.396;2023-01-10T05:54:07;4.17;3.33;2.83
62778;PMS7003;48821;48.796;2.396;2023-01-10T05:55:20;4.50;3.50;2.83
62778;PMS7003;48821;48.796;2.396;2023-01-10T05:56:33;7.33;5.33;3.00
62778;PMS7003;48821;48.796;2.396;2023-01-10T05:57:47;8.50;3.50;2.83
62778;PMS7003;48821;48.796;2.396;2023-01-10T05:59:00;6.67;4.50;3.17
62778;PMS7003;48821;48.796;2.396;2023-01-10T06:00:13;6.83;5.00;4.00
62778;PMS7003;48821;48.796;2.396;2023-01-10T06:01:27;8.00;5.83;4.17
62778;PMS7003;48821;48.796;2.396;2023-01-10T06:02:40;5.50;4.17;3.50
62778;PMS7003;48821;48.796;2.396;2023-01-10T06:03:53;6.33;6.33;4.83
62778;PMS7003;48821;48.796;2.396;2023-01-10T06:05:07;5.00;4.17;3.67
62778;PMS7003;48821;48.796;2.396;2023-01-10T06:06:20;8.17;4.50;3.17
62778;PMS7003;48821;48.796;2.396;2023-01-10T06:07:34;9.50;5.50;4.17
62778;PMS7003;48821;48.796;2.396;2023-01-10T06:08:47;6.00;6.00;4.00
62778;PMS7003;48821;48.796;2.396;2023-01-10T06:10:00;5.50;4.83;3.50
62778;PMS7003;48821;48.796;2.396;2023-01-10T06:11:13;8.00;4.00;3.17
62778;PMS7003;48821;48.796;2.396;2023-01-10T06:12:26;5.67;4.67;3.67
62778;PMS7003;48821;48.796;2.396;2023-01-10T06:13:40;6.67;5.50;3.67
62778;PMS7003;48821;48.796;2.396;2023-01-10T06:14:53;8.00;4.00;4.00
62778;PMS7003;48821;48.796;2.396;2023-01-10T06:16:06;7.33;6.67;4.83
62778;PMS7003;48821;48.796;2.396;2023-01-10T06:17:19;8.00;5.83;4.00
62778;PMS7003;48821;48.796;2.396;2023-01-10T06:18:33;7.83;5.50;4.33
62778;PMS7003;48821;48.796;2.396;2023-01-10T06:19:43;10.67;5.00;3.33
62778;PMS7003;48821;48.796;2.396;2023-01-10T06:20:54;8.33;4.00;3.33
62778;PMS7003;48821;48.796;2.396;2023-01-10T06:22:07;6.00;4.67;4.00
62778;PMS7003;48821;48.796;2.396;2023-01-10T06:23:21;5.83;4.00;3.00
62778;PMS7003;48821;48.796;2.396;2023-01-10T06:24:34;6.83;4.50;2.33
62778;PMS7003;48821;48.796;2.396;2023-01-10T06:25:47;5.17;4.67;4.33
62778;PMS7003;48821;48.796;2.396;2023-01-10T06:27:00;6.50;5.33;3.67
62778;PMS7003;48821;48.796;2.396;2023-01-10T06:28:14;6.50;5.00;4.00
62778;PMS7003;48821;48.796;2.396;2023-01-10T06:29:27;7.00;4.83;4.00
62778;PMS7003;48821;48.796;2.396;2023-01-10T06:30:40;7.17;6.00;4.83
62778;PMS7003;48821;48.796;2.396;2023-01-10T06:31:55;8.00;6.00;4.67
62778;PMS7003;48821;48.796;2.396;2023-01-10T06:33:08;6.00;5.33;4.00
62778;PMS7003;48821;48.796;2.396;2023-01-10T06:34:22;5.67;5.00;4.00
62778;PMS7003;48821;48.796;2.396;2023-01-10T06:35:36;8.00;5.50;4.00
62778;PMS7003;48821;48.796;2.396;2023-01-10T06:36:49;9.00;6.00;4.00
62778;PMS7003;48821;48.796;2.396;2023-01-10T06:38:02;4.50;4.50;3.67
62778;PMS7003;48821;48.796;2.396;2023-01-10T06:39:16;9.33;5.00;4.00
62778;PMS7003;48821;48.796;2.396;2023-01-10T06:40:29;6.50;5.17;4.50
62778;PMS7003;48821;48.796;2.396;2023-01-10T06:41:42;4.83;4.33;3.50
62778;PMS7003;48821;48.796;2.396;2023-01-10T06:42:55;4.33;3.33;2.00
62778;PMS7003;48821;48.796;2.396;2023-01-10T06:44:09;5.50;4.00;3.00
62778;PMS7003;48821;48.796;2.396;2023-01-10T06:45:22;7.67;5.00;4.00
62778;PMS7003;48821;48.796;2.396;2023-01-10T06:46:35;4.17;3.50;2.33
62778;PMS7003;48821;48.796;2.396;2023-01-10T06:47:48;6.00;4.00;3.00
62778;PMS7003;48821;48.796;2.396;2023-01-10T06:49:01;4.17;3.00;2.83
62778;PMS7003;48821;48.796;2.396;2023-01-10T06:50:15;4.00;4.00;3.00
62778;PMS7003;48821;48.796;2.396;2023-01-10T06:51:28;4.50;3.33;2.00
62778;PMS7003;48821;48.796;2.396;2023-01-10T06:52:41;7.00;5.33;3.50
62778;PMS7003;48821;48.796;2.396;2023-01-10T06:53:54;4.67;4.00;3.00
62778;PMS7003;48821;48.796;2.396;2023-01-10T06:55:08;6.50;4.83;3.17
62778;PMS7003;48821;48.796;2.396;2023-01-10T06:56:21;2.67;2.67;2.00
62778;PMS7003;48821;48.796;2.396;2023-01-10T06:57:32;5.33;4.00;3.00
62778;PMS7003;48821;48.796;2.396;2023-01-10T06:58:50;8.50;4.67;3.17
62778;PMS7003;48821;48.796;2.396;2023-01-10T07:00:04;5.33;3.17;3.00
62778;PMS7003;48821;48.796;2.396;2023-01-10T07:01:20;5.83;3.83;3.00
62778;PMS7003;48821;48.796;2.396;2023-01-10T07:02:34;4.67;3.50;3.00
62778;PMS7003;48821;48.796;2.396;2023-01-10T07:03:44;10.00;4.33;4.00
62778;PMS7003;48821;48.796;2.396;2023-01-10T07:04:56;4.75;4.00;3.00
62778;PMS7003;48821;48.796;2.396;2023-01-10T07:06:07;9.33;3.00;2.67
62778;PMS7003;48821;48.796;2.396;2023-01-10T07:07:21;7.00;6.17;5.00
62778;PMS7003;48821;48.796;2.396;2023-01-10T07:08:35;5.50;4.00;2.83
62778;PMS7003;48821;48.796;2.396;2023-01-10T07:09:50;5.33;4.83;3.50
62778;PMS7003;48821;48.796;2.396;2023-01-10T07:11:03;6.17;4.67;3.83
62778;PMS7003;48821;48.796;2.396;2023-01-10T07:12:16;6.00;4.00;3.00
62778;PMS7003;48821;48.796;2.396;2023-01-10T07:13:29;6.33;4.00;3.17
62778;PMS7003;48821;48.796;2.396;2023-01-10T07:14:42;7.17;5.00;4.00
62778;PMS7003;48821;48.796;2.396;2023-01-10T07:16:04;4.83;4.83;3.83
62778;PMS7003;48821;48.796;2.396;2023-01-10T07:17:19;4.50;3.83;3.00
62778;PMS7003;48821;48.796;2.396;2023-01-10T07:18:33;4.17;3.00;2.83
62778;PMS7003;48821;48.796;2.396;2023-01-10T07:19:47;4.17;3.00;3.00
62778;PMS7003;48821;48.796;2.396;2023-01-10T07:21:01;4.33;2.83;2.00
62778;PMS7003;48821;48.796;2.396;2023-01-10T07:22:15;7.67;5.00;3.50
62778;PMS7003;48821;48.796;2.396;2023-01-10T07:23:28;7.50;5.50;4.00
62778;PMS7003;48821;48.796;2.396;2023-01-10T07:24:42;7.67;6.83;3.33
62778;PMS7003;48821;48.796;2.396;2023-01-10T07:25:56;9.83;8.50;6.50
62778;PMS7003;48821;48.796;2.396;2023-01-10T07:27:10;8.50;5.50;3.50
62778;PMS7003;48821;48.796;2.396;2023-01-10T07:28:22;13.00;8.00;5.25
62778;PMS7003;48821;48.796;2.396;2023-01-10T07:29:35;8.00;4.83;3.17
62778;PMS7003;48821;48.796;2.396;2023-01-10T07:30:49;7.83;7.17;4.17
62778;PMS7003;48821;48.796;2.396;2023-01-10T07:31:59;10.67;7.00;5.00
62778;PMS7003;48821;48.796;2.396;2023-01-10T07:33:10;6.67;5.00;4.00
62778;PMS7003;48821;48.796;2.396;2023-01-10T07:34:23;9.33;6.67;4.67
62778;PMS7003;48821;48.796;2.396;2023-01-10T07:35:37;8.17;5.83;4.00
62778;PMS7003;48821;48.796;2.396;2023-01-10T07:36:48;9.33;7.33;5.00
62778;PMS7003;48821;48.796;2.396;2023-01-10T07:38:00;8.00;5.50;5.00
62778;PMS7003;48821;48.796;2.396;2023-01-10T07:39:12;3.33;3.33;3.00
62778;PMS7003;48821;48.796;2.396;2023-01-10T07:40:23;8.00;6.67;5.00
62778;PMS7003;48821;48.796;2.396;2023-01-10T07:41:36;5.67;5.67;4.00
62778;PMS7003;48821;48.796;2.396;2023-01-10T07:42:47;8.00;6.00;5.00
62778;PMS7003;48821;48.796;2.396;2023-01-10T07:43:58;7.67;6.33;5.00
62778;PMS7003;48821;48.796;2.396;2023-01-10T07:45:11;10.17;6.50;4.17
62778;PMS7003;48821;48.796;2.396;2023-01-10T07:46:24;4.83;4.83;3.50
62778;PMS7003;48821;48.796;2.396;2023-01-10T07:47:38;8.83;6.67;5.33
62778;PMS7003;48821;48.796;2.396;2023-01-10T07:48:51;7.33;6.00;5.00
62778;PMS7003;48821;48.796;2.396;2023-01-10T07:50:02;11.33;7.00;5.00
62778;PMS7003;48821;48.796;2.396;2023-01-10T07:51:13;11.33;6.33;4.00
62778;PMS7003;48821;48.796;2.396;2023-01-10T07:52:26;10.17;7.17;5.33
62778;PMS7003;48821;48.796;2.396;2023-01-10T07:53:40;5.17;4.67;3.00